createdAt,value
2024-01-29T00:00:04.946Z,27.60
2024-01-29T00:02:33.400Z,24.98
2024-01-29T00:05:00.173Z,28.52
2024-01-29T00:07:26.992Z,25.98
2024-01-29T00:09:53.898Z,23.02
2024-01-29T00:12:20.716Z,23.48
2024-01-29T00:14:47.410Z,22.90
2024-01-29T00:17:14.185Z,22.85
2024-01-29T00:19:41.210Z,20.58
2024-01-29T00:22:08.141Z,20.10
2024-01-29T00:24:34.956Z,20.95
2024-01-29T00:27:01.845Z,15.02
2024-01-29T00:29:28.615Z,19.95
2024-01-29T00:31:55.389Z,15.38
2024-01-29T00:34:23.321Z,18.83
2024-01-29T00:36:50.258Z,17.48
2024-01-29T00:39:17.318Z,17.85
2024-01-29T00:41:44.025Z,17.15
2024-01-29T00:44:10.803Z,22.55
2024-01-29T00:46:40.399Z,17.85
2024-01-29T00:49:08.166Z,17.13
2024-01-29T00:51:35.218Z,18.13
2024-01-29T00:54:02.940Z,19.20
2024-01-29T00:56:29.774Z,16.67
2024-01-29T00:58:56.524Z,17.27
2024-01-29T01:01:23.356Z,21.30
2024-01-29T01:03:50.323Z,17.25
2024-01-29T01:06:17.268Z,22.75
2024-01-29T01:08:44.036Z,15.63
2024-01-29T01:11:10.803Z,16.17
2024-01-29T01:13:37.477Z,17.38
2024-01-29T01:16:04.853Z,20.17
2024-01-29T01:18:31.706Z,18.27
2024-01-29T01:20:58.494Z,14.97
2024-01-29T01:23:25.257Z,22.25
2024-01-29T01:25:51.957Z,21.58
2024-01-29T01:28:18.737Z,22.90
2024-01-29T01:30:45.577Z,18.65
2024-01-29T01:33:12.452Z,25.03
2024-01-29T01:35:39.260Z,19.23
2024-01-29T01:38:06.055Z,22.88
2024-01-29T01:40:32.876Z,24.27
2024-01-29T01:42:59.623Z,21.30
2024-01-29T01:45:26.604Z,23.88
2024-01-29T01:47:53.480Z,25.25
2024-01-29T01:50:20.472Z,19.92
2024-01-29T01:52:49.153Z,24.17
2024-01-29T01:55:16.865Z,26.23
2024-01-29T01:57:44.284Z,21.00
2024-01-29T02:00:12.760Z,19.45
2024-01-29T02:02:39.681Z,19.92
2024-01-29T02:05:07.009Z,21.60
2024-01-29T02:07:34.056Z,25.88
2024-01-29T02:10:00.987Z,26.75
2024-01-29T02:12:27.749Z,27.42
2024-01-29T02:14:54.643Z,22.20
2024-01-29T02:17:21.397Z,21.52
2024-01-29T02:19:48.410Z,21.38
2024-01-29T02:22:15.392Z,19.75
2024-01-29T02:24:42.174Z,21.20
2024-01-29T02:27:08.948Z,19.30
2024-01-29T02:29:35.768Z,16.55
2024-01-29T02:32:02.600Z,19.50
2024-01-29T02:34:29.576Z,19.42
2024-01-29T02:36:56.858Z,16.58
2024-01-29T02:39:24.033Z,17.20
2024-01-29T02:41:50.822Z,20.08
2024-01-29T02:44:17.675Z,19.08
2024-01-29T02:46:44.468Z,25.75
2024-01-29T02:49:11.504Z,21.45
2024-01-29T02:51:38.429Z,24.45
2024-01-29T02:54:05.419Z,19.58
2024-01-29T02:56:32.093Z,27.17
2024-01-29T02:58:58.917Z,27.33
2024-01-29T03:01:25.810Z,21.33
2024-01-29T03:03:52.721Z,20.30
2024-01-29T03:06:19.492Z,29.52
2024-01-29T03:08:47.985Z,21.17
2024-01-29T03:11:15.062Z,21.75
2024-01-29T03:13:41.793Z,25.35
2024-01-29T03:16:08.666Z,28.75
2024-01-29T03:18:35.587Z,28.95
2024-01-29T03:21:03.674Z,27.55
2024-01-29T03:23:30.417Z,28.25
2024-01-29T03:25:57.331Z,25.17
2024-01-29T03:28:24.100Z,22.20
2024-01-29T03:30:50.850Z,26.70
2024-01-29T03:33:18.047Z,20.75
2024-01-29T03:35:44.768Z,22.10
2024-01-29T03:38:11.498Z,22.70
2024-01-29T03:40:38.412Z,20.30
2024-01-29T03:43:05.348Z,23.90
2024-01-29T03:45:32.258Z,18.33
2024-01-29T03:47:58.967Z,19.50
2024-01-29T03:50:26.212Z,16.38
2024-01-29T03:52:52.969Z,17.25
2024-01-29T03:55:19.946Z,13.90
2024-01-29T03:57:46.761Z,19.38
2024-01-29T04:00:13.957Z,16.70
2024-01-29T04:02:40.738Z,15.02
2024-01-29T04:05:09.505Z,19.95
2024-01-29T04:07:36.580Z,14.93
2024-01-29T04:10:03.656Z,17.23
2024-01-29T04:12:30.417Z,18.17
2024-01-29T04:14:57.270Z,22.05
2024-01-29T04:17:24.105Z,12.63
2024-01-29T04:19:51.005Z,17.92
2024-01-29T04:22:18.132Z,13.07
2024-01-29T04:24:44.976Z,10.30
2024-01-29T04:27:11.713Z,15.40
2024-01-29T04:29:39.411Z,16.10
2024-01-29T04:32:06.320Z,15.95
2024-01-29T04:34:33.247Z,17.23
2024-01-29T04:37:00.070Z,13.95
2024-01-29T04:39:26.882Z,16.67
2024-01-29T04:41:54.108Z,16.58
2024-01-29T04:44:20.900Z,12.40
2024-01-29T04:46:47.748Z,13.52
2024-01-29T04:49:17.326Z,16.23
2024-01-29T04:51:44.662Z,12.25
2024-01-29T04:54:11.466Z,20.23
2024-01-29T04:56:38.169Z,12.85
2024-01-29T04:59:05.001Z,15.48
2024-01-29T05:01:31.754Z,14.50
2024-01-29T05:03:58.605Z,12.88
2024-01-29T05:06:25.738Z,12.85
2024-01-29T05:08:52.563Z,15.88
2024-01-29T05:11:19.362Z,12.43
2024-01-29T05:13:46.094Z,16.92
2024-01-29T05:16:13.300Z,15.18
2024-01-29T05:18:40.550Z,12.77
2024-01-29T05:21:07.965Z,11.82
2024-01-29T05:23:35.242Z,11.20
2024-01-29T05:26:02.121Z,14.10
2024-01-29T05:28:28.808Z,13.93
2024-01-29T05:30:55.598Z,12.65
2024-01-29T05:33:25.859Z,14.25
2024-01-29T05:35:54.619Z,13.40
2024-01-29T05:38:21.418Z,14.48
2024-01-29T05:40:48.197Z,12.15
2024-01-29T05:43:15.141Z,19.67
2024-01-29T05:45:42.146Z,16.65
2024-01-29T05:48:10.007Z,14.10
2024-01-29T05:50:36.909Z,14.00
2024-01-29T05:53:04.198Z,23.08
2024-01-29T05:55:31.117Z,17.88
2024-01-29T05:57:57.901Z,14.52
2024-01-29T06:00:25.436Z,17.05
2024-01-29T06:02:52.411Z,13.30
2024-01-29T06:05:19.572Z,14.80
2024-01-29T06:07:46.518Z,31.45
2024-01-29T06:10:15.677Z,23.60
2024-01-29T06:12:43.009Z,27.80
2024-01-29T06:15:10.043Z,39.35
2024-01-29T06:17:37.377Z,24.02
2024-01-29T06:20:16.206Z,30.80
2024-01-29T06:22:45.908Z,20.60
2024-01-29T06:25:12.833Z,17.83
2024-01-29T06:27:40.082Z,22.70
2024-01-29T06:30:07.779Z,23.60
2024-01-29T06:32:34.537Z,73.57
2024-01-29T06:35:01.544Z,40.88
2024-01-29T06:37:29.463Z,53.42
2024-01-29T06:39:56.511Z,17.73
2024-01-29T06:42:24.171Z,22.15
2024-01-29T06:44:51.076Z,22.08
2024-01-29T06:47:19.324Z,20.65
2024-01-29T06:49:46.445Z,21.55
2024-01-29T06:52:17.001Z,21.80
2024-01-29T06:54:45.722Z,29.08
2024-01-29T06:57:12.783Z,27.40
2024-01-29T06:59:39.450Z,19.77
2024-01-29T07:02:07.592Z,18.20
2024-01-29T07:04:34.703Z,20.53
2024-01-29T07:07:02.111Z,20.63
2024-01-29T07:09:30.632Z,23.73
2024-01-29T07:11:57.926Z,14.27
2024-01-29T07:14:26.265Z,20.15
2024-01-29T07:16:53.522Z,16.02
2024-01-29T07:19:27.205Z,16.95
2024-01-29T07:21:55.134Z,22.75
2024-01-29T07:24:22.211Z,21.65
2024-01-29T07:26:49.123Z,27.27
2024-01-29T07:29:16.033Z,26.65
2024-01-29T07:31:42.850Z,23.05
2024-01-29T07:34:09.726Z,23.67
2024-01-29T07:36:39.549Z,23.08
2024-01-29T07:39:06.555Z,24.65
2024-01-29T07:41:33.458Z,21.83
2024-01-29T07:44:00.171Z,15.20
2024-01-29T07:46:27.003Z,15.07
2024-01-29T07:48:53.802Z,15.60
2024-01-29T07:51:20.547Z,14.23
2024-01-29T07:53:47.294Z,13.18
2024-01-29T07:56:14.472Z,13.73
2024-01-29T07:58:41.157Z,17.85
2024-01-29T08:01:08.218Z,18.80
2024-01-29T08:03:35.229Z,17.27
2024-01-29T08:06:03.014Z,14.90
2024-01-29T08:08:30.366Z,17.27
2024-01-29T08:10:59.612Z,18.23
2024-01-29T08:13:26.553Z,17.55
2024-01-29T08:15:53.320Z,17.98
2024-01-29T08:18:20.473Z,19.73
2024-01-29T08:20:47.639Z,14.70
2024-01-29T08:23:14.640Z,20.70
2024-01-29T08:25:41.387Z,19.02
2024-01-29T08:28:08.258Z,15.77
2024-01-29T08:30:35.344Z,15.88
2024-01-29T08:33:02.255Z,16.80
2024-01-29T08:35:29.339Z,18.77
2024-01-29T08:37:56.239Z,17.08
2024-01-29T08:40:23.133Z,14.52
2024-01-29T08:42:49.855Z,16.63
2024-01-29T08:45:19.700Z,16.52
2024-01-29T08:47:46.770Z,19.38
2024-01-29T08:50:13.692Z,22.95
2024-01-29T08:52:40.890Z,19.83
2024-01-29T08:55:10.939Z,15.07
2024-01-29T08:57:37.849Z,15.55
2024-01-29T09:00:05.843Z,14.70
2024-01-29T09:02:33.336Z,13.57
2024-01-29T09:05:00.470Z,15.43
2024-01-29T09:07:27.488Z,15.27
2024-01-29T09:09:54.427Z,16.42
2024-01-29T09:12:21.281Z,15.80
2024-01-29T09:14:48.133Z,15.65
2024-01-29T09:17:14.913Z,14.88
2024-01-29T09:19:41.906Z,15.68
2024-01-29T09:22:08.802Z,23.10
2024-01-29T09:24:35.722Z,20.45
2024-01-29T09:27:02.697Z,16.83
2024-01-29T09:29:29.634Z,18.90
2024-01-29T09:31:59.433Z,13.88
2024-01-29T09:34:28.964Z,17.33
2024-01-29T09:36:56.884Z,19.15
2024-01-29T09:39:26.868Z,13.68
2024-01-29T09:42:00.739Z,15.40
2024-01-29T09:44:29.685Z,19.55
2024-01-29T09:46:57.680Z,19.13
2024-01-29T09:49:25.208Z,14.65
2024-01-29T09:51:53.133Z,17.27
2024-01-29T09:54:20.905Z,17.48
2024-01-29T09:56:48.997Z,23.48
2024-01-29T09:59:15.785Z,21.15
2024-01-29T10:01:43.670Z,15.63
2024-01-29T10:04:10.614Z,18.02
2024-01-29T10:06:37.528Z,16.42
2024-01-29T10:09:05.970Z,15.82
2024-01-29T10:11:33.572Z,16.50
2024-01-29T10:14:00.723Z,19.38
2024-01-29T10:16:28.542Z,17.08
2024-01-29T10:19:02.789Z,18.83
2024-01-29T10:21:33.999Z,15.00
2024-01-29T10:24:00.826Z,18.05
2024-01-29T10:26:28.198Z,16.92
2024-01-29T10:29:02.420Z,12.93
2024-01-29T10:31:29.738Z,12.60
2024-01-29T10:33:57.540Z,14.75
2024-01-29T10:36:24.591Z,10.63
2024-01-29T10:38:53.352Z,12.93
2024-01-29T10:41:23.758Z,14.65
2024-01-29T10:43:52.418Z,13.40
2024-01-29T10:46:23.680Z,19.95
2024-01-29T10:48:53.269Z,14.90
2024-01-29T10:51:22.630Z,14.20
2024-01-29T10:53:49.918Z,18.15
2024-01-29T10:56:17.821Z,16.17
2024-01-29T10:58:47.188Z,14.35
2024-01-29T11:01:14.865Z,10.55
2024-01-29T11:03:43.169Z,13.80
2024-01-29T11:06:10.305Z,16.15
2024-01-29T11:08:41.268Z,14.23
2024-01-29T11:11:11.049Z,14.60
2024-01-29T11:13:38.110Z,18.15
2024-01-29T11:16:07.668Z,18.25
2024-01-29T11:18:35.935Z,16.27
2024-01-29T11:21:03.704Z,15.95
2024-01-29T11:23:31.656Z,14.73
2024-01-29T11:26:01.834Z,14.23
2024-01-29T11:28:28.910Z,14.15
2024-01-29T11:30:55.891Z,15.60
2024-01-29T11:33:23.995Z,15.95
2024-01-29T11:35:54.494Z,14.70
2024-01-29T11:38:24.131Z,13.05
2024-01-29T11:40:51.223Z,12.35
2024-01-29T11:43:19.940Z,9.82
2024-01-29T11:45:50.646Z,11.60
2024-01-29T11:48:20.735Z,9.95
2024-01-29T11:50:50.378Z,10.65
2024-01-29T11:53:19.129Z,9.40
2024-01-29T11:55:49.205Z,10.00
2024-01-29T11:58:20.655Z,12.73
2024-01-29T12:00:49.527Z,8.15
2024-01-29T12:03:19.804Z,15.98
2024-01-29T12:05:47.321Z,10.05
2024-01-29T12:08:18.756Z,9.30
2024-01-29T12:10:47.343Z,11.77
2024-01-29T12:13:19.381Z,10.40
2024-01-29T12:15:47.505Z,12.60
2024-01-29T12:18:25.517Z,11.65
2024-01-29T12:20:53.132Z,13.73
2024-01-29T12:23:23.127Z,10.38
2024-01-29T12:25:59.032Z,16.63
2024-01-29T12:28:27.913Z,12.60
2024-01-29T12:31:02.377Z,15.05
2024-01-29T12:33:33.476Z,16.33
2024-01-29T12:36:15.135Z,18.17
2024-01-29T12:38:43.813Z,17.90
2024-01-29T12:41:10.988Z,12.85
2024-01-29T12:43:39.510Z,12.07
2024-01-29T12:46:10.905Z,12.88
2024-01-29T12:48:38.230Z,15.75
2024-01-29T12:51:06.603Z,13.52
2024-01-29T12:53:33.462Z,12.07
2024-01-29T12:56:00.185Z,13.73
2024-01-29T12:58:27.029Z,13.70
2024-01-29T13:00:54.209Z,15.05
2024-01-29T13:03:21.298Z,15.82
2024-01-29T13:05:48.188Z,18.40
2024-01-29T13:08:15.059Z,16.13
2024-01-29T13:10:43.229Z,17.00
2024-01-29T13:13:10.805Z,21.13
2024-01-29T13:15:38.195Z,13.70
2024-01-29T13:18:05.483Z,11.38
2024-01-29T13:20:33.127Z,11.82
2024-01-29T13:22:59.926Z,12.27
2024-01-29T13:25:26.741Z,13.20
2024-01-29T13:27:53.966Z,16.83
2024-01-29T13:30:21.008Z,13.98
2024-01-29T13:32:47.900Z,15.18
2024-01-29T13:35:14.938Z,17.75
2024-01-29T13:37:42.584Z,13.05
2024-01-29T13:40:11.148Z,13.05
2024-01-29T13:42:38.020Z,10.32
2024-01-29T13:45:05.623Z,9.75
2024-01-29T13:47:32.597Z,10.50
2024-01-29T13:50:02.803Z,9.90
2024-01-29T13:52:29.623Z,13.68
2024-01-29T13:54:56.643Z,9.60
2024-01-29T13:57:24.947Z,9.93
2024-01-29T13:59:52.662Z,10.57
2024-01-29T14:02:19.610Z,9.85
2024-01-29T14:04:46.612Z,11.98
2024-01-29T14:07:13.750Z,11.02
2024-01-29T14:09:40.605Z,14.18
2024-01-29T14:12:07.778Z,12.30
2024-01-29T14:14:41.064Z,13.77
2024-01-29T14:17:13.687Z,11.05
2024-01-29T14:19:41.636Z,18.85
2024-01-29T14:22:08.520Z,13.25
2024-01-29T14:24:35.401Z,11.57
2024-01-29T14:27:02.334Z,11.20
2024-01-29T14:29:29.089Z,14.00
2024-01-29T14:31:57.300Z,10.25
2024-01-29T14:34:25.015Z,12.60
2024-01-29T14:36:52.404Z,10.70
2024-01-29T14:39:21.936Z,11.75
2024-01-29T14:41:52.777Z,12.55
2024-01-29T14:44:19.714Z,17.17
2024-01-29T14:46:46.512Z,18.00
2024-01-29T14:49:15.132Z,20.08
2024-01-29T14:51:42.041Z,11.10
2024-01-29T14:54:09.686Z,13.07
2024-01-29T14:56:39.649Z,11.73
2024-01-29T14:59:09.978Z,20.45
2024-01-29T15:01:41.448Z,22.17
2024-01-29T15:04:12.947Z,13.60
2024-01-29T15:06:40.682Z,17.63
2024-01-29T15:09:09.154Z,18.30
2024-01-29T15:11:36.047Z,16.70
2024-01-29T15:14:04.286Z,17.88
2024-01-29T15:16:31.041Z,18.23
2024-01-29T15:18:57.861Z,16.08
2024-01-29T15:21:24.897Z,15.68
2024-01-29T15:23:53.568Z,16.48
2024-01-29T15:26:20.994Z,23.17
2024-01-29T15:28:47.841Z,21.33
2024-01-29T15:31:16.108Z,29.80
2024-01-29T15:33:46.261Z,23.30
2024-01-29T15:36:14.280Z,20.77
2024-01-29T15:38:41.159Z,29.52
2024-01-29T15:41:16.856Z,20.80
2024-01-29T15:43:44.092Z,21.83
2024-01-29T15:46:11.327Z,20.33
2024-01-29T15:48:39.612Z,29.35
2024-01-29T15:51:06.547Z,26.05
2024-01-29T15:53:34.025Z,31.95
2024-01-29T15:56:00.757Z,27.13
2024-01-29T15:58:27.591Z,37.38
2024-01-29T16:00:54.532Z,33.22
2024-01-29T16:03:21.416Z,26.60
2024-01-29T16:05:48.253Z,29.90
2024-01-29T16:08:15.492Z,25.30
2024-01-29T16:10:42.658Z,21.60
2024-01-29T16:13:09.626Z,25.85
2024-01-29T16:15:36.625Z,20.83
2024-01-29T16:18:07.955Z,22.63
2024-01-29T16:20:35.404Z,22.75
2024-01-29T16:23:05.675Z,23.75
2024-01-29T16:25:32.510Z,24.50
2024-01-29T16:27:59.393Z,23.67
2024-01-29T16:30:26.282Z,27.23
2024-01-29T16:32:53.757Z,26.30
2024-01-29T16:35:20.666Z,25.75
2024-01-29T16:37:47.607Z,21.92
2024-01-29T16:40:15.070Z,22.30
2024-01-29T16:42:42.066Z,24.73
2024-01-29T16:45:09.087Z,22.00
2024-01-29T16:47:41.745Z,32.25
2024-01-29T16:50:09.079Z,31.75
2024-01-29T16:52:36.140Z,35.28
2024-01-29T16:55:03.326Z,35.00
2024-01-29T16:57:30.202Z,36.58
2024-01-29T16:59:56.994Z,34.30
2024-01-29T17:02:24.998Z,33.30
2024-01-29T17:04:52.046Z,35.97
2024-01-29T17:07:19.031Z,64.35
2024-01-29T17:09:45.925Z,79.63
2024-01-29T17:12:12.765Z,80.57
2024-01-29T17:14:39.603Z,64.07
2024-01-29T17:17:08.041Z,57.45
2024-01-29T17:19:35.949Z,59.35
2024-01-29T17:22:03.004Z,71.90
2024-01-29T17:24:30.034Z,61.83
2024-01-29T17:26:57.129Z,63.50
2024-01-29T17:29:24.261Z,63.15
2024-01-29T17:31:51.013Z,58.20
2024-01-29T17:34:17.860Z,49.38
2024-01-29T17:36:44.731Z,52.90
2024-01-29T17:39:11.679Z,49.50
2024-01-29T17:41:39.104Z,47.55
2024-01-29T17:44:06.537Z,65.50
2024-01-29T17:46:33.394Z,64.30
2024-01-29T17:49:00.391Z,60.22
2024-01-29T17:51:27.486Z,59.17
2024-01-29T17:53:54.322Z,69.05
2024-01-29T17:56:21.161Z,73.80
2024-01-29T17:58:53.242Z,66.27
2024-01-29T18:01:20.077Z,77.05
2024-01-29T18:03:46.891Z,69.85
2024-01-29T18:06:13.638Z,77.57
2024-01-29T18:08:41.129Z,68.50
2024-01-29T18:11:07.854Z,69.77
2024-01-29T18:13:34.524Z,48.42
2024-01-29T18:16:01.800Z,40.45
2024-01-29T18:18:28.625Z,36.25
2024-01-29T18:20:55.507Z,40.20
2024-01-29T18:23:22.410Z,30.03
2024-01-29T18:25:49.125Z,33.17
2024-01-29T18:28:16.154Z,42.25
2024-01-29T18:30:43.124Z,40.80
2024-01-29T18:33:09.997Z,31.13
2024-01-29T18:35:36.787Z,39.90
2024-01-29T18:38:03.831Z,51.13
2024-01-29T18:40:34.957Z,70.95
2024-01-29T18:43:02.320Z,77.82
2024-01-29T18:45:29.214Z,106.65
2024-01-29T18:47:56.015Z,66.07
2024-01-29T18:50:23.845Z,62.00
2024-01-29T18:52:50.884Z,73.43
2024-01-29T18:55:18.659Z,59.53
2024-01-29T18:57:46.070Z,40.00
2024-01-29T19:00:15.646Z,41.37
2024-01-29T19:02:44.558Z,40.35
2024-01-29T19:05:11.882Z,26.08
2024-01-29T19:07:39.050Z,33.78
2024-01-29T19:10:11.367Z,30.38
2024-01-29T19:12:40.937Z,26.30
2024-01-29T19:15:08.739Z,25.85
2024-01-29T19:17:35.868Z,32.72
2024-01-29T19:20:02.716Z,25.30
2024-01-29T19:22:30.663Z,32.25
2024-01-29T19:25:01.355Z,30.30
2024-01-29T19:27:30.083Z,37.47
2024-01-29T19:29:56.821Z,50.88
2024-01-29T19:32:23.653Z,52.38
2024-01-29T19:34:52.800Z,50.55
2024-01-29T19:37:21.521Z,43.20
2024-01-29T19:39:49.334Z,41.67
2024-01-29T19:42:18.370Z,56.03
2024-01-29T19:44:45.645Z,53.67
2024-01-29T19:47:12.316Z,50.88
2024-01-29T19:49:39.761Z,55.93
2024-01-29T19:52:07.007Z,50.78
2024-01-29T19:54:34.455Z,55.00
2024-01-29T19:57:01.536Z,48.90
2024-01-29T19:59:28.346Z,55.40
2024-01-29T20:01:55.204Z,65.67
2024-01-29T20:04:24.317Z,71.03
2024-01-29T20:06:52.024Z,60.53
2024-01-29T20:09:19.085Z,47.42
2024-01-29T20:11:45.816Z,49.42
2024-01-29T20:14:12.665Z,43.87
2024-01-29T20:16:39.547Z,43.75
2024-01-29T20:19:06.546Z,45.58
2024-01-29T20:21:33.661Z,94.97
2024-01-29T20:24:00.533Z,106.80
2024-01-29T20:26:27.346Z,103.03
2024-01-29T20:28:54.314Z,85.60
2024-01-29T20:31:25.690Z,82.93
2024-01-29T20:33:54.387Z,65.45
2024-01-29T20:36:25.020Z,69.70
2024-01-29T20:38:52.033Z,61.47
2024-01-29T20:41:32.678Z,74.65
2024-01-29T20:44:07.734Z,71.70
2024-01-29T20:46:35.160Z,67.38
2024-01-29T20:49:04.800Z,68.28
2024-01-29T20:51:31.829Z,71.20
2024-01-29T20:53:58.939Z,86.63
2024-01-29T20:56:26.192Z,64.15
2024-01-29T20:58:53.469Z,68.65
2024-01-29T21:01:20.361Z,62.88
2024-01-29T21:03:47.417Z,59.50
2024-01-29T21:06:14.267Z,68.22
2024-01-29T21:08:42.536Z,61.72
2024-01-29T21:11:09.223Z,70.18
2024-01-29T21:13:36.078Z,66.25
2024-01-29T21:16:02.912Z,78.27
2024-01-29T21:18:29.832Z,96.38
2024-01-29T21:20:56.751Z,87.55
2024-01-29T21:23:23.759Z,80.10
2024-01-29T21:25:50.576Z,81.25
2024-01-29T21:28:17.885Z,82.20
2024-01-29T21:30:45.313Z,83.95
2024-01-29T21:33:13.791Z,82.95
2024-01-29T21:35:40.603Z,81.45
2024-01-29T21:38:07.396Z,84.72
2024-01-29T21:40:34.402Z,82.93
2024-01-29T21:43:01.431Z,104.65
2024-01-29T21:45:28.274Z,126.50
2024-01-29T21:47:55.279Z,116.97
2024-01-29T21:50:22.152Z,114.53
2024-01-29T21:52:48.828Z,106.37
2024-01-29T21:55:16.467Z,102.43
2024-01-29T21:57:44.975Z,100.80
2024-01-29T22:00:12.531Z,100.43
2024-01-29T22:02:39.351Z,106.75
2024-01-29T22:05:06.294Z,99.20
2024-01-29T22:07:33.266Z,103.50
2024-01-29T22:10:00.255Z,106.47
2024-01-29T22:12:27.831Z,103.88
2024-01-29T22:14:54.805Z,110.15
2024-01-29T22:17:22.107Z,105.67
2024-01-29T22:19:49.191Z,94.75
2024-01-29T22:22:16.108Z,87.65
2024-01-29T22:24:43.120Z,100.05
2024-01-29T22:27:11.458Z,92.53
2024-01-29T22:29:40.309Z,105.07
2024-01-29T22:32:07.658Z,98.18
2024-01-29T22:34:34.929Z,80.85
2024-01-29T22:37:01.737Z,105.65
2024-01-29T22:39:28.517Z,96.10
2024-01-29T22:41:55.298Z,103.10
2024-01-29T22:44:23.376Z,130.77
2024-01-29T22:46:50.099Z,112.78
2024-01-29T22:49:17.098Z,115.20
2024-01-29T22:51:45.392Z,103.40
2024-01-29T22:54:12.614Z,121.83
2024-01-29T22:56:41.148Z,115.22
2024-01-29T22:59:07.968Z,115.70
2024-01-29T23:01:35.704Z,115.47
2024-01-29T23:04:03.239Z,115.72
2024-01-29T23:06:30.438Z,102.20
2024-01-29T23:08:57.219Z,108.35
2024-01-29T23:11:24.079Z,86.07
2024-01-29T23:13:50.902Z,109.85
2024-01-29T23:16:17.819Z,96.97
2024-01-29T23:18:45.964Z,92.53
2024-01-29T23:21:13.000Z,92.07
2024-01-29T23:23:39.853Z,82.15
2024-01-29T23:26:06.698Z,82.10
2024-01-29T23:28:35.486Z,98.85
2024-01-29T23:31:02.622Z,116.80
2024-01-29T23:33:29.617Z,108.72
2024-01-29T23:35:56.606Z,141.57
2024-01-29T23:38:23.983Z,140.02
2024-01-29T23:40:50.871Z,107.88
2024-01-29T23:43:17.861Z,102.43
2024-01-29T23:45:44.822Z,111.00
2024-01-29T23:48:11.717Z,102.95
2024-01-29T23:50:38.583Z,88.40
2024-01-29T23:53:06.592Z,89.90
2024-01-29T23:55:33.561Z,69.60
2024-01-29T23:58:00.506Z,68.63
